Terminal Aerodrome Forecast
Issued by NWS Cleveland, OH

Home | Current Version | Previous Version | Graphics & Text | Print | Product List | Glossary On
Versions: 1 2 3 4 5 6 7 8 9 10 11 12 13 14 15 16 17 18 19 20 21 22 23 24 25 26 27 28 29 30 31
000
FTUS41 KCLE 130800 AAA
TAFCLE
TAF AMD
KCLE 130855Z 1309/1412 18010KT P6SM BKN070 WS020/22040KT
     FM131100 36008KT P6SM BKN070 WS020/22040KT
     FM131300 21018G28KT P6SM SCT035 BKN050
     FM131800 21020G30KT P6SM SCT050 BKN150
     FM132300 20015G25KT P6SM SCT050 BKN200=

USA.gov is the U.S. government's official web portal to all federal, state and local government web resources and services.